Grande Prairie Airport
CYQU : now visible

Airfield :











YOU CAN JOIN US ON...

 
LOGIN :

Register | Disclaimer

   EN    FR    IT 

 









Legend :    VFR   Marginal VFR   IFR   Intensive IFR   Very Intensive IFR
Visi :
Ceiling :
>= 8 km
>= 3000ft
5 to 8 km
1000 to 3000 ft
1500m to 5 km
500 to 1000 ft
800 to 1500m
200 to 500 ft
< 800m
< 200 ft
Symbols :   Thunderstorms  Fog  Heavy snow  Heavy precipitations  Wind > 20 kt






- Airport Elevation : 2195 ft
- IATA code : YQU


CYQU - Grande Prairie

CURRENT METAR :
  • 042300Z 18005KT 25SM SCT210 02/M01 A3010 RMK CI6 SLP229

EXPIRED METARs :
  • 042200Z 15007KT 25SM SCT140 BKN230 02/M01 A3009 RMK AC4CI3 SLP227
  • 042100Z 27003KT 25SM OVC200 07/M01 A3011 RMK CI8 SLP230

TAF TAF CYQU
Valid from the 04 at 19:00 until the 05 at 07:00 UTC


041838Z 0419/0507 25008KT P6SM SCT150
FM042000 27010KT P6SM BKN100
BECMG 0422/0424 VRB03KT SCT080 SCT150
FM050200 VRB03KT P6SM BKN120 RMK NXT FCST BY 050100Z
CZEG FIR / North America



MET'MAP, your aeronautical weather chart ! - Copyright ORBIFLY December 2007 - Disclaimer

ORBIFLY MET'MAP TEAM :

Programming & Development : Alexandra Zaïnal
Concept & original design : Baudouin d'Aumeries
Assistance for programming : Marc-Olivier Méhu
Technical & hardware support : Manuel Goepfert

Contact : metmap@orbifly.com




SOURCES & CREDITS :

   NOAA       Earth
Advisory